sensor_id;sensor_type;location;lat;lon;timestamp;P1;durP1;ratioP1;P2;durP2;ratioP2
66972;SDS011;53902;51.466;-2.586;2022-07-10T00:21:21;2.65;;;0.90;;
66972;SDS011;53902;51.466;-2.586;2022-07-10T00:26:22;2.25;;;1.00;;
66972;SDS011;53902;51.466;-2.586;2022-07-10T00:28:48;1.23;;;0.90;;
66972;SDS011;53902;51.466;-2.586;2022-07-10T00:31:15;1.85;;;0.80;;
66972;SDS011;53902;51.466;-2.586;2022-07-10T00:33:41;1.08;;;0.90;;
66972;SDS011;53902;51.466;-2.586;2022-07-10T00:36:07;2.50;;;1.00;;
66972;SDS011;53902;51.466;-2.586;2022-07-10T00:38:35;2.47;;;0.90;;
66972;SDS011;53902;51.466;-2.586;2022-07-10T00:41:01;2.67;;;0.90;;
66972;SDS011;53902;51.466;-2.586;2022-07-10T00:43:27;1.80;;;0.90;;
66972;SDS011;53902;51.466;-2.586;2022-07-10T00:45:52;2.20;;;1.20;;
66972;SDS011;53902;51.466;-2.586;2022-07-10T00:48:18;2.50;;;1.10;;
66972;SDS011;53902;51.466;-2.586;2022-07-10T00:50:44;1.30;;;0.87;;
66972;SDS011;53902;51.466;-2.586;2022-07-10T00:53:10;0.80;;;0.80;;
66972;SDS011;53902;51.466;-2.586;2022-07-10T00:55:40;1.05;;;0.95;;
66972;SDS011;53902;51.466;-2.586;2022-07-10T00:58:07;1.20;;;1.10;;
66972;SDS011;53902;51.466;-2.586;2022-07-10T01:00:34;1.27;;;1.17;;
66972;SDS011;53902;51.466;-2.586;2022-07-10T01:03:03;1.30;;;0.90;;
66972;SDS011;53902;51.466;-2.586;2022-07-10T01:05:29;1.10;;;0.75;;
66972;SDS011;53902;51.466;-2.586;2022-07-10T01:07:54;1.67;;;1.00;;
66972;SDS011;53902;51.466;-2.586;2022-07-10T01:10:20;2.67;;;0.80;;
66972;SDS011;53902;51.466;-2.586;2022-07-10T01:12:48;1.40;;;0.80;;
66972;SDS011;53902;51.466;-2.586;2022-07-10T01:15:14;1.33;;;0.95;;
66972;SDS011;53902;51.466;-2.586;2022-07-10T01:17:40;2.35;;;0.82;;
66972;SDS011;53902;51.466;-2.586;2022-07-10T01:20:06;2.80;;;1.00;;
66972;SDS011;53902;51.466;-2.586;2022-07-10T01:22:33;0.80;;;0.80;;
66972;SDS011;53902;51.466;-2.586;2022-07-10T01:24:59;1.20;;;0.80;;
66972;SDS011;53902;51.466;-2.586;2022-07-10T01:27:24;0.80;;;0.80;;
66972;SDS011;53902;51.466;-2.586;2022-07-10T01:29:50;0.93;;;0.80;;
66972;SDS011;53902;51.466;-2.586;2022-07-10T01:32:16;0.82;;;0.80;;
66972;SDS011;53902;51.466;-2.586;2022-07-10T01:34:44;1.03;;;0.93;;
66972;SDS011;53902;51.466;-2.586;2022-07-10T01:37:12;1.35;;;1.13;;
66972;SDS011;53902;51.466;-2.586;2022-07-10T01:39:37;0.93;;;0.90;;
66972;SDS011;53902;51.466;-2.586;2022-07-10T01:42:05;2.10;;;1.10;;
66972;SDS011;53902;51.466;-2.586;2022-07-10T01:44:31;2.90;;;0.90;;
66972;SDS011;53902;51.466;-2.586;2022-07-10T01:46:56;1.50;;;1.00;;
66972;SDS011;53902;51.466;-2.586;2022-07-10T01:49:22;0.80;;;0.80;;
66972;SDS011;53902;51.466;-2.586;2022-07-10T01:51:47;0.93;;;0.87;;
66972;SDS011;53902;51.466;-2.586;2022-07-10T01:54:13;0.87;;;0.87;;
66972;SDS011;53902;51.466;-2.586;2022-07-10T01:56:39;3.07;;;0.90;;
66972;SDS011;53902;51.466;-2.586;2022-07-10T01:59:05;1.30;;;1.10;;
66972;SDS011;53902;51.466;-2.586;2022-07-10T02:01:31;1.17;;;0.93;;
66972;SDS011;53902;51.466;-2.586;2022-07-10T02:03:59;2.42;;;0.90;;
66972;SDS011;53902;51.466;-2.586;2022-07-10T02:06:45;0.80;;;0.80;;
66972;SDS011;53902;51.466;-2.586;2022-07-10T02:09:11;0.88;;;0.80;;
66972;SDS011;53902;51.466;-2.586;2022-07-10T02:11:40;1.48;;;0.95;;
66972;SDS011;53902;51.466;-2.586;2022-07-10T02:14:08;0.80;;;0.80;;
66972;SDS011;53902;51.466;-2.586;2022-07-10T02:16:36;0.90;;;0.90;;
66972;SDS011;53902;51.466;-2.586;2022-07-10T02:19:05;1.00;;;1.00;;
66972;SDS011;53902;51.466;-2.586;2022-07-10T02:21:30;3.03;;;1.00;;
66972;SDS011;53902;51.466;-2.586;2022-07-10T02:23:56;2.20;;;1.07;;
66972;SDS011;53902;51.466;-2.586;2022-07-10T02:26:23;1.00;;;1.00;;
66972;SDS011;53902;51.466;-2.586;2022-07-10T02:28:49;1.27;;;1.17;;
66972;SDS011;53902;51.466;-2.586;2022-07-10T02:31:15;1.33;;;1.20;;
66972;SDS011;53902;51.466;-2.586;2022-07-10T02:33:40;1.40;;;0.90;;
66972;SDS011;53902;51.466;-2.586;2022-07-10T02:36:06;1.20;;;1.10;;
66972;SDS011;53902;51.466;-2.586;2022-07-10T02:38:31;1.77;;;1.10;;
66972;SDS011;53902;51.466;-2.586;2022-07-10T02:40:57;1.23;;;1.10;;
66972;SDS011;53902;51.466;-2.586;2022-07-10T02:43:23;2.37;;;1.20;;
66972;SDS011;53902;51.466;-2.586;2022-07-10T02:45:48;1.03;;;0.93;;
66972;SDS011;53902;51.466;-2.586;2022-07-10T02:48:14;4.30;;;1.40;;
66972;SDS011;53902;51.466;-2.586;2022-07-10T02:50:43;1.00;;;1.00;;
66972;SDS011;53902;51.466;-2.586;2022-07-10T02:53:11;1.67;;;1.10;;
66972;SDS011;53902;51.466;-2.586;2022-07-10T02:55:37;2.03;;;1.08;;
66972;SDS011;53902;51.466;-2.586;2022-07-10T02:58:02;1.40;;;1.30;;
66972;SDS011;53902;51.466;-2.586;2022-07-10T03:00:28;1.38;;;1.27;;
66972;SDS011;53902;51.466;-2.586;2022-07-10T03:02:54;1.37;;;1.20;;
66972;SDS011;53902;51.466;-2.586;2022-07-10T03:05:23;2.05;;;1.10;;
66972;SDS011;53902;51.466;-2.586;2022-07-10T03:07:48;1.55;;;1.27;;
66972;SDS011;53902;51.466;-2.586;2022-07-10T03:10:16;1.27;;;1.13;;
66972;SDS011;53902;51.466;-2.586;2022-07-10T03:56:24;1.30;;;1.20;;
66972;SDS011;53902;51.466;-2.586;2022-07-10T03:59:07;5.38;;;1.60;;
66972;SDS011;53902;51.466;-2.586;2022-07-10T04:01:35;1.30;;;1.20;;
66972;SDS011;53902;51.466;-2.586;2022-07-10T04:04:03;1.38;;;1.20;;
66972;SDS011;53902;51.466;-2.586;2022-07-10T04:06:31;1.50;;;1.40;;
66972;SDS011;53902;51.466;-2.586;2022-07-10T04:09:00;1.50;;;1.40;;
66972;SDS011;53902;51.466;-2.586;2022-07-10T04:11:26;1.65;;;1.45;;
66972;SDS011;53902;51.466;-2.586;2022-07-10T04:13:51;1.57;;;1.47;;
66972;SDS011;53902;51.466;-2.586;2022-07-10T04:26:37;3.58;;;1.40;;
66972;SDS011;53902;51.466;-2.586;2022-07-10T04:29:03;2.42;;;1.70;;
66972;SDS011;53902;51.466;-2.586;2022-07-10T04:41:49;1.77;;;1.60;;
66972;SDS011;53902;51.466;-2.586;2022-07-10T04:49:19;1.70;;;1.60;;
66972;SDS011;53902;51.466;-2.586;2022-07-10T04:51:44;2.22;;;1.63;;
66972;SDS011;53902;51.466;-2.586;2022-07-10T04:54:10;4.28;;;1.63;;
66972;SDS011;53902;51.466;-2.586;2022-07-10T04:56:36;2.00;;;1.67;;
66972;SDS011;53902;51.466;-2.586;2022-07-10T04:59:01;1.98;;;1.67;;
66972;SDS011;53902;51.466;-2.586;2022-07-10T05:01:27;3.77;;;1.80;;
66972;SDS011;53902;51.466;-2.586;2022-07-10T05:03:53;2.47;;;1.90;;
66972;SDS011;53902;51.466;-2.586;2022-07-10T05:06:18;2.50;;;1.80;;
66972;SDS011;53902;51.466;-2.586;2022-07-10T05:08:44;4.50;;;1.80;;
66972;SDS011;53902;51.466;-2.586;2022-07-10T05:11:09;2.70;;;1.90;;
66972;SDS011;53902;51.466;-2.586;2022-07-10T05:13:36;2.03;;;1.85;;
66972;SDS011;53902;51.466;-2.586;2022-07-10T05:16:02;3.05;;;2.20;;
66972;SDS011;53902;51.466;-2.586;2022-07-10T05:18:28;2.72;;;2.40;;
66972;SDS011;53902;51.466;-2.586;2022-07-10T05:20:54;4.77;;;2.40;;
66972;SDS011;53902;51.466;-2.586;2022-07-10T05:23:20;4.43;;;2.60;;
66972;SDS011;53902;51.466;-2.586;2022-07-10T05:25:46;4.00;;;3.45;;
66972;SDS011;53902;51.466;-2.586;2022-07-10T05:28:11;4.77;;;3.27;;
66972;SDS011;53902;51.466;-2.586;2022-07-10T05:43:33;4.90;;;3.10;;
66972;SDS011;53902;51.466;-2.586;2022-07-10T05:45:58;7.15;;;4.88;;
66972;SDS011;53902;51.466;-2.586;2022-07-10T05:48:24;8.70;;;5.53;;
66972;SDS011;53902;51.466;-2.586;2022-07-10T05:50:50;7.30;;;6.07;;
66972;SDS011;53902;51.466;-2.586;2022-07-10T05:53:15;7.53;;;5.90;;
66972;SDS011;53902;51.466;-2.586;2022-07-10T05:55:44;8.05;;;6.43;;
66972;SDS011;53902;51.466;-2.586;2022-07-10T05:58:11;7.65;;;6.18;;
66972;SDS011;53902;51.466;-2.586;2022-07-10T06:00:37;8.52;;;5.90;;
66972;SDS011;53902;51.466;-2.586;2022-07-10T06:03:03;8.80;;;6.83;;
66972;SDS011;53902;51.466;-2.586;2022-07-10T06:05:28;8.77;;;6.55;;
66972;SDS011;53902;51.466;-2.586;2022-07-10T06:07:54;8.97;;;6.83;;
66972;SDS011;53902;51.466;-2.586;2022-07-10T06:12:49;6.78;;;5.50;;
66972;SDS011;53902;51.466;-2.586;2022-07-10T06:15:14;7.77;;;5.93;;
66972;SDS011;53902;51.466;-2.586;2022-07-10T06:17:40;9.97;;;5.50;;
66972;SDS011;53902;51.466;-2.586;2022-07-10T06:20:13;7.05;;;5.68;;
66972;SDS011;53902;51.466;-2.586;2022-07-10T06:22:38;6.20;;;5.60;;
66972;SDS011;53902;51.466;-2.586;2022-07-10T06:27:55;5.93;;;5.32;;
66972;SDS011;53902;51.466;-2.586;2022-07-10T06:30:21;10.25;;;5.68;;
66972;SDS011;53902;51.466;-2.586;2022-07-10T06:32:46;9.57;;;5.93;;
66972;SDS011;53902;51.466;-2.586;2022-07-10T06:35:12;6.25;;;5.65;;
66972;SDS011;53902;51.466;-2.586;2022-07-10T06:37:38;8.20;;;5.47;;
66972;SDS011;53902;51.466;-2.586;2022-07-10T06:40:04;6.85;;;5.72;;
66972;SDS011;53902;51.466;-2.586;2022-07-10T06:42:30;6.05;;;5.45;;
66972;SDS011;53902;51.466;-2.586;2022-07-10T06:44:55;6.07;;;5.47;;
66972;SDS011;53902;51.466;-2.586;2022-07-10T06:47:21;6.33;;;5.73;;
66972;SDS011;53902;51.466;-2.586;2022-07-10T06:50:06;6.20;;;5.63;;
66972;SDS011;53902;51.466;-2.586;2022-07-10T06:52:35;7.57;;;5.80;;
66972;SDS011;53902;51.466;-2.586;2022-07-10T06:57:29;6.72;;;5.82;;
66972;SDS011;53902;51.466;-2.586;2022-07-10T06:59:55;6.53;;;5.63;;
66972;SDS011;53902;51.466;-2.586;2022-07-10T07:02:21;7.63;;;5.82;;
66972;SDS011;53902;51.466;-2.586;2022-07-10T07:04:46;6.30;;;5.70;;
66972;SDS011;53902;51.466;-2.586;2022-07-10T07:07:12;6.68;;;5.70;;
66972;SDS011;53902;51.466;-2.586;2022-07-10T07:12:43;5.55;;;5.05;;
66972;SDS011;53902;51.466;-2.586;2022-07-10T07:15:09;5.63;;;5.13;;
66972;SDS011;53902;51.466;-2.586;2022-07-10T07:20:24;6.03;;;5.45;;
66972;SDS011;53902;51.466;-2.586;2022-07-10T07:33:31;6.32;;;5.35;;
66972;SDS011;53902;51.466;-2.586;2022-07-10T08:01:03;6.70;;;5.53;;
66972;SDS011;53902;51.466;-2.586;2022-07-10T08:03:31;5.93;;;5.25;;
66972;SDS011;53902;51.466;-2.586;2022-07-10T08:05:57;6.50;;;5.40;;
66972;SDS011;53902;51.466;-2.586;2022-07-10T08:08:22;7.07;;;5.90;;
66972;SDS011;53902;51.466;-2.586;2022-07-10T08:10:48;6.50;;;5.90;;
66972;SDS011;53902;51.466;-2.586;2022-07-10T08:13:14;7.00;;;4.90;;
66972;SDS011;53902;51.466;-2.586;2022-07-10T08:15:39;5.27;;;4.77;;
66972;SDS011;53902;51.466;-2.586;2022-07-10T08:18:05;6.10;;;4.70;;
66972;SDS011;53902;51.466;-2.586;2022-07-10T08:23:00;7.10;;;5.10;;
66972;SDS011;53902;51.466;-2.586;2022-07-10T08:25:26;6.47;;;4.93;;
66972;SDS011;53902;51.466;-2.586;2022-07-10T08:28:16;5.70;;;4.93;;
66972;SDS011;53902;51.466;-2.586;2022-07-10T08:30:40;5.95;;;4.90;;
66972;SDS011;53902;51.466;-2.586;2022-07-10T08:33:10;5.05;;;4.55;;
66972;SDS011;53902;51.466;-2.586;2022-07-10T08:35:35;7.40;;;5.63;;
66972;SDS011;53902;51.466;-2.586;2022-07-10T08:38:01;5.50;;;4.40;;
66972;SDS011;53902;51.466;-2.586;2022-07-10T08:40:27;4.37;;;3.97;;
66972;SDS011;53902;51.466;-2.586;2022-07-10T08:43:00;4.30;;;3.83;;
66972;SDS011;53902;51.466;-2.586;2022-07-10T08:45:26;6.13;;;4.50;;
66972;SDS011;53902;51.466;-2.586;2022-07-10T08:50:21;6.63;;;4.03;;
66972;SDS011;53902;51.466;-2.586;2022-07-10T08:52:52;5.68;;;4.38;;
66972;SDS011;53902;51.466;-2.586;2022-07-10T08:55:31;6.40;;;4.40;;
66972;SDS011;53902;51.466;-2.586;2022-07-10T08:57:57;4.20;;;3.80;;
66972;SDS011;53902;51.466;-2.586;2022-07-10T09:00:26;6.07;;;4.25;;
66972;SDS011;53902;51.466;-2.586;2022-07-10T09:02:58;5.30;;;4.60;;
66972;SDS011;53902;51.466;-2.586;2022-07-10T09:05:26;5.45;;;4.22;;
66972;SDS011;53902;51.466;-2.586;2022-07-10T09:08:24;5.22;;;4.43;;
66972;SDS011;53902;51.466;-2.586;2022-07-10T09:10:53;4.75;;;4.30;;
66972;SDS011;53902;51.466;-2.586;2022-07-10T09:13:54;7.03;;;4.88;;
66972;SDS011;53902;51.466;-2.586;2022-07-10T09:28:29;5.13;;;4.47;;
66972;SDS011;53902;51.466;-2.586;2022-07-10T09:31:02;5.07;;;4.57;;
66972;SDS011;53902;51.466;-2.586;2022-07-10T09:42:26;6.15;;;3.83;;
66972;SDS011;53902;51.466;-2.586;2022-07-10T09:47:37;6.10;;;3.70;;
66972;SDS011;53902;51.466;-2.586;2022-07-10T09:50:29;3.42;;;3.13;;
66972;SDS011;53902;51.466;-2.586;2022-07-10T09:53:02;4.32;;;2.83;;
66972;SDS011;53902;51.466;-2.586;2022-07-10T09:55:35;6.25;;;3.10;;
66972;SDS011;53902;51.466;-2.586;2022-07-10T09:58:05;7.05;;;3.35;;
66972;SDS011;53902;51.466;-2.586;2022-07-10T10:03:02;3.17;;;2.72;;
66972;SDS011;53902;51.466;-2.586;2022-07-10T10:05:36;6.13;;;2.50;;
66972;SDS011;53902;51.466;-2.586;2022-07-10T10:08:16;4.00;;;2.70;;
66972;SDS011;53902;51.466;-2.586;2022-07-10T10:10:46;3.38;;;2.50;;
66972;SDS011;53902;51.466;-2.586;2022-07-10T10:13:14;4.45;;;2.75;;
66972;SDS011;53902;51.466;-2.586;2022-07-10T10:15:42;2.63;;;2.22;;
66972;SDS011;53902;51.466;-2.586;2022-07-10T10:18:09;3.35;;;2.63;;
66972;SDS011;53902;51.466;-2.586;2022-07-10T10:20:35;3.58;;;2.70;;
66972;SDS011;53902;51.466;-2.586;2022-07-10T10:23:29;2.60;;;2.38;;
66972;SDS011;53902;51.466;-2.586;2022-07-10T10:25:57;3.72;;;2.75;;
66972;SDS011;53902;51.466;-2.586;2022-07-10T10:28:25;3.22;;;2.50;;
66972;SDS011;53902;51.466;-2.586;2022-07-10T10:30:52;2.65;;;2.42;;
66972;SDS011;53902;51.466;-2.586;2022-07-10T10:35:58;3.65;;;3.00;;
66972;SDS011;53902;51.466;-2.586;2022-07-10T10:38:24;3.33;;;3.00;;
66972;SDS011;53902;51.466;-2.586;2022-07-10T10:40:49;4.83;;;3.20;;
66972;SDS011;53902;51.466;-2.586;2022-07-10T10:43:18;2.85;;;2.60;;
66972;SDS011;53902;51.466;-2.586;2022-07-10T10:45:48;3.97;;;3.20;;
66972;SDS011;53902;51.466;-2.586;2022-07-10T10:48:15;5.65;;;3.85;;
66972;SDS011;53902;51.466;-2.586;2022-07-10T10:53:20;3.40;;;3.10;;
66972;SDS011;53902;51.466;-2.586;2022-07-10T10:58:25;3.78;;;2.70;;
66972;SDS011;53902;51.466;-2.586;2022-07-10T11:00:51;3.53;;;2.72;;
66972;SDS011;53902;51.466;-2.586;2022-07-10T11:03:20;4.93;;;2.77;;
66972;SDS011;53902;51.466;-2.586;2022-07-10T11:05:47;2.92;;;2.70;;
66972;SDS011;53902;51.466;-2.586;2022-07-10T11:10:44;2.80;;;2.28;;
66972;SDS011;53902;51.466;-2.586;2022-07-10T11:13:14;3.13;;;2.83;;
66972;SDS011;53902;51.466;-2.586;2022-07-10T11:15:46;3.25;;;2.88;;
66972;SDS011;53902;51.466;-2.586;2022-07-10T11:18:14;4.03;;;2.90;;
66972;SDS011;53902;51.466;-2.586;2022-07-10T11:20:41;3.35;;;3.05;;
66972;SDS011;53902;51.466;-2.586;2022-07-10T11:26:30;3.63;;;2.75;;
66972;SDS011;53902;51.466;-2.586;2022-07-10T11:29:04;3.30;;;3.00;;
66972;SDS011;53902;51.466;-2.586;2022-07-10T11:31:32;2.88;;;2.67;;
66972;SDS011;53902;51.466;-2.586;2022-07-10T11:34:09;2.83;;;2.58;;
66972;SDS011;53902;51.466;-2.586;2022-07-10T11:36:35;3.30;;;2.90;;
66972;SDS011;53902;51.466;-2.586;2022-07-10T11:39:07;4.97;;;3.40;;
66972;SDS011;53902;51.466;-2.586;2022-07-10T11:41:33;4.47;;;3.03;;
66972;SDS011;53902;51.466;-2.586;2022-07-10T11:44:06;4.85;;;2.95;;
66972;SDS011;53902;51.466;-2.586;2022-07-10T11:46:33;2.80;;;2.60;;
66972;SDS011;53902;51.466;-2.586;2022-07-10T11:49:02;2.97;;;2.60;;
66972;SDS011;53902;51.466;-2.586;2022-07-10T11:51:37;3.10;;;2.80;;
66972;SDS011;53902;51.466;-2.586;2022-07-10T11:54:10;2.45;;;2.25;;
66972;SDS011;53902;51.466;-2.586;2022-07-10T11:56:39;2.47;;;2.03;;
66972;SDS011;53902;51.466;-2.586;2022-07-10T11:59:11;2.20;;;2.00;;
66972;SDS011;53902;51.466;-2.586;2022-07-10T12:04:10;3.03;;;2.20;;
66972;SDS011;53902;51.466;-2.586;2022-07-10T12:06:37;2.40;;;2.05;;
66972;SDS011;53902;51.466;-2.586;2022-07-10T12:09:08;2.08;;;1.80;;
66972;SDS011;53902;51.466;-2.586;2022-07-10T12:11:35;2.83;;;2.25;;
66972;SDS011;53902;51.466;-2.586;2022-07-10T12:16:39;2.10;;;1.90;;
66972;SDS011;53902;51.466;-2.586;2022-07-10T12:19:07;2.50;;;2.30;;
66972;SDS011;53902;51.466;-2.586;2022-07-10T12:21:33;2.58;;;2.30;;
66972;SDS011;53902;51.466;-2.586;2022-07-10T12:23:59;3.33;;;2.10;;
66972;SDS011;53902;51.466;-2.586;2022-07-10T12:26:39;2.20;;;2.00;;
66972;SDS011;53902;51.466;-2.586;2022-07-10T12:29:22;2.65;;;2.30;;
66972;SDS011;53902;51.466;-2.586;2022-07-10T12:31:49;2.88;;;2.30;;
66972;SDS011;53902;51.466;-2.586;2022-07-10T12:34:18;2.50;;;2.28;;
66972;SDS011;53902;51.466;-2.586;2022-07-10T12:36:48;2.47;;;2.28;;
66972;SDS011;53902;51.466;-2.586;2022-07-10T12:39:18;3.15;;;2.08;;
66972;SDS011;53902;51.466;-2.586;2022-07-10T12:44:54;2.50;;;1.87;;
66972;SDS011;53902;51.466;-2.586;2022-07-10T12:47:20;3.47;;;1.95;;
66972;SDS011;53902;51.466;-2.586;2022-07-10T13:00:24;3.22;;;2.90;;
66972;SDS011;53902;51.466;-2.586;2022-07-10T13:03:04;2.30;;;2.10;;
66972;SDS011;53902;51.466;-2.586;2022-07-10T13:10:41;3.38;;;1.90;;
66972;SDS011;53902;51.466;-2.586;2022-07-10T13:13:09;2.80;;;1.73;;
66972;SDS011;53902;51.466;-2.586;2022-07-10T13:15:35;2.08;;;1.92;;
66972;SDS011;53902;51.466;-2.586;2022-07-10T13:18:06;1.83;;;1.60;;
66972;SDS011;53902;51.466;-2.586;2022-07-10T13:20:32;2.42;;;1.70;;
66972;SDS011;53902;51.466;-2.586;2022-07-10T13:22:57;1.73;;;1.50;;
66972;SDS011;53902;51.466;-2.586;2022-07-10T13:25:23;1.55;;;1.40;;
66972;SDS011;53902;51.466;-2.586;2022-07-10T13:27:51;3.45;;;1.58;;
66972;SDS011;53902;51.466;-2.586;2022-07-10T13:30:17;1.20;;;1.20;;
66972;SDS011;53902;51.466;-2.586;2022-07-10T13:32:42;3.33;;;1.47;;
66972;SDS011;53902;51.466;-2.586;2022-07-10T13:35:08;1.57;;;1.47;;
66972;SDS011;53902;51.466;-2.586;2022-07-10T13:37:34;1.50;;;1.35;;
66972;SDS011;53902;51.466;-2.586;2022-07-10T13:39:59;2.50;;;2.03;;
66972;SDS011;53902;51.466;-2.586;2022-07-10T13:42:25;1.60;;;1.50;;
66972;SDS011;53902;51.466;-2.586;2022-07-10T13:44:50;1.80;;;1.70;;
66972;SDS011;53902;51.466;-2.586;2022-07-10T13:47:18;2.08;;;1.88;;
66972;SDS011;53902;51.466;-2.586;2022-07-10T13:49:46;2.47;;;1.90;;
66972;SDS011;53902;51.466;-2.586;2022-07-10T13:52:11;2.83;;;2.40;;
66972;SDS011;53902;51.466;-2.586;2022-07-10T13:54:37;5.37;;;2.37;;
66972;SDS011;53902;51.466;-2.586;2022-07-10T13:57:03;2.90;;;2.60;;
66972;SDS011;53902;51.466;-2.586;2022-07-10T13:59:29;2.85;;;2.33;;
66972;SDS011;53902;51.466;-2.586;2022-07-10T14:01:54;2.43;;;2.20;;
66972;SDS011;53902;51.466;-2.586;2022-07-10T14:04:19;5.23;;;2.27;;
66972;SDS011;53902;51.466;-2.586;2022-07-10T14:06:45;2.50;;;1.97;;
66972;SDS011;53902;51.466;-2.586;2022-07-10T14:09:10;5.37;;;2.10;;
66972;SDS011;53902;51.466;-2.586;2022-07-10T14:11:35;2.33;;;2.13;;
66972;SDS011;53902;51.466;-2.586;2022-07-10T14:14:01;3.83;;;2.00;;
66972;SDS011;53902;51.466;-2.586;2022-07-10T14:16:27;1.92;;;1.70;;
66972;SDS011;53902;51.466;-2.586;2022-07-10T14:18:54;3.22;;;1.70;;
66972;SDS011;53902;51.466;-2.586;2022-07-10T14:21:20;1.87;;;1.67;;
66972;SDS011;53902;51.466;-2.586;2022-07-10T14:23:45;2.13;;;1.80;;
66972;SDS011;53902;51.466;-2.586;2022-07-10T14:26:13;2.67;;;1.70;;
66972;SDS011;53902;51.466;-2.586;2022-07-10T14:28:38;1.90;;;1.80;;
66972;SDS011;53902;51.466;-2.586;2022-07-10T14:31:04;3.47;;;1.70;;
66972;SDS011;53902;51.466;-2.586;2022-07-10T14:38:21;1.83;;;1.40;;
66972;SDS011;53902;51.466;-2.586;2022-07-10T14:40:47;4.60;;;1.40;;
66972;SDS011;53902;51.466;-2.586;2022-07-10T14:43:12;1.30;;;1.20;;
66972;SDS011;53902;51.466;-2.586;2022-07-10T14:45:38;2.30;;;1.27;;
66972;SDS011;53902;51.466;-2.586;2022-07-10T14:48:03;1.47;;;1.20;;
66972;SDS011;53902;51.466;-2.586;2022-07-10T14:50:29;1.20;;;1.15;;
66972;SDS011;53902;51.466;-2.586;2022-07-10T14:52:54;0.97;;;0.93;;
66972;SDS011;53902;51.466;-2.586;2022-07-10T14:55:20;2.50;;;1.30;;
66972;SDS011;53902;51.466;-2.586;2022-07-10T14:57:45;1.23;;;1.00;;
66972;SDS011;53902;51.466;-2.586;2022-07-10T15:00:15;0.93;;;0.90;;
66972;SDS011;53902;51.466;-2.586;2022-07-10T15:02:43;1.17;;;0.75;;
66972;SDS011;53902;51.466;-2.586;2022-07-10T15:05:08;2.97;;;1.03;;
66972;SDS011;53902;51.466;-2.586;2022-07-10T15:07:36;1.30;;;1.17;;
66972;SDS011;53902;51.466;-2.586;2022-07-10T15:10:02;1.13;;;1.02;;
66972;SDS011;53902;51.466;-2.586;2022-07-10T15:12:27;1.10;;;0.93;;
66972;SDS011;53902;51.466;-2.586;2022-07-10T15:14:55;1.20;;;0.80;;
66972;SDS011;53902;51.466;-2.586;2022-07-10T15:17:20;1.00;;;0.90;;
66972;SDS011;53902;51.466;-2.586;2022-07-10T15:19:45;0.90;;;0.90;;
66972;SDS011;53902;51.466;-2.586;2022-07-10T15:22:11;1.10;;;1.00;;
66972;SDS011;53902;51.466;-2.586;2022-07-10T15:24:36;1.20;;;1.10;;
66972;SDS011;53902;51.466;-2.586;2022-07-10T15:27:02;1.10;;;0.97;;
66972;SDS011;53902;51.466;-2.586;2022-07-10T15:29:30;1.20;;;1.10;;
66972;SDS011;53902;51.466;-2.586;2022-07-10T15:31:56;1.40;;;1.20;;
66972;SDS011;53902;51.466;-2.586;2022-07-10T15:34:24;1.10;;;1.00;;
66972;SDS011;53902;51.466;-2.586;2022-07-10T15:36:49;1.80;;;0.80;;
66972;SDS011;53902;51.466;-2.586;2022-07-10T15:39:15;1.58;;;0.98;;
66972;SDS011;53902;51.466;-2.586;2022-07-10T15:41:40;1.00;;;0.97;;
66972;SDS011;53902;51.466;-2.586;2022-07-10T15:44:12;1.30;;;1.10;;
66972;SDS011;53902;51.466;-2.586;2022-07-10T15:46:38;2.85;;;1.25;;
66972;SDS011;53902;51.466;-2.586;2022-07-10T15:49:03;1.80;;;1.47;;
66972;SDS011;53902;51.466;-2.586;2022-07-10T15:51:30;1.13;;;1.08;;
66972;SDS011;53902;51.466;-2.586;2022-07-10T15:53:55;1.43;;;1.23;;
66972;SDS011;53902;51.466;-2.586;2022-07-10T15:56:22;1.52;;;1.33;;
66972;SDS011;53902;51.466;-2.586;2022-07-10T15:58:50;0.93;;;0.93;;
66972;SDS011;53902;51.466;-2.586;2022-07-10T16:01:15;1.27;;;1.17;;
66972;SDS011;53902;51.466;-2.586;2022-07-10T16:03:44;0.93;;;0.90;;
66972;SDS011;53902;51.466;-2.586;2022-07-10T16:06:10;1.13;;;1.02;;
66972;SDS011;53902;51.466;-2.586;2022-07-10T16:08:39;1.00;;;0.90;;
66972;SDS011;53902;51.466;-2.586;2022-07-10T16:11:05;1.42;;;0.93;;
66972;SDS011;53902;51.466;-2.586;2022-07-10T16:13:31;2.63;;;0.98;;
66972;SDS011;53902;51.466;-2.586;2022-07-10T16:15:57;1.33;;;0.90;;
66972;SDS011;53902;51.466;-2.586;2022-07-10T16:18:23;1.52;;;1.17;;
66972;SDS011;53902;51.466;-2.586;2022-07-10T16:20:48;0.90;;;0.90;;
66972;SDS011;53902;51.466;-2.586;2022-07-10T16:23:14;2.97;;;1.08;;
66972;SDS011;53902;51.466;-2.586;2022-07-10T16:25:43;4.57;;;1.42;;
66972;SDS011;53902;51.466;-2.586;2022-07-10T16:28:28;4.13;;;1.20;;
66972;SDS011;53902;51.466;-2.586;2022-07-10T16:30:54;1.45;;;1.13;;
66972;SDS011;53902;51.466;-2.586;2022-07-10T16:33:23;2.08;;;1.20;;
66972;SDS011;53902;51.466;-2.586;2022-07-10T16:35:50;1.17;;;1.02;;
66972;SDS011;53902;51.466;-2.586;2022-07-10T16:38:16;0.87;;;0.87;;
66972;SDS011;53902;51.466;-2.586;2022-07-10T16:40:42;1.43;;;1.00;;
66972;SDS011;53902;51.466;-2.586;2022-07-10T16:43:08;1.65;;;1.50;;
66972;SDS011;53902;51.466;-2.586;2022-07-10T16:45:35;1.40;;;1.30;;
66972;SDS011;53902;51.466;-2.586;2022-07-10T16:48:04;0.82;;;0.82;;
66972;SDS011;53902;51.466;-2.586;2022-07-10T16:50:29;1.77;;;0.70;;
66972;SDS011;53902;51.466;-2.586;2022-07-10T16:52:55;1.20;;;0.90;;
66972;SDS011;53902;51.466;-2.586;2022-07-10T16:55:21;0.87;;;0.80;;
66972;SDS011;53902;51.466;-2.586;2022-07-10T16:57:46;1.43;;;0.90;;
66972;SDS011;53902;51.466;-2.586;2022-07-10T17:00:12;0.90;;;0.70;;
66972;SDS011;53902;51.466;-2.586;2022-07-10T17:02:38;1.45;;;1.00;;
66972;SDS011;53902;51.466;-2.586;2022-07-10T17:05:04;0.70;;;0.70;;
66972;SDS011;53902;51.466;-2.586;2022-07-10T17:07:29;0.70;;;0.70;;
66972;SDS011;53902;51.466;-2.586;2022-07-10T17:09:58;0.80;;;0.80;;
66972;SDS011;53902;51.466;-2.586;2022-07-10T17:12:24;1.30;;;1.20;;
66972;SDS011;53902;51.466;-2.586;2022-07-10T17:14:52;0.88;;;0.88;;
66972;SDS011;53902;51.466;-2.586;2022-07-10T17:17:18;1.30;;;1.20;;
66972;SDS011;53902;51.466;-2.586;2022-07-10T17:19:43;1.43;;;1.10;;
66972;SDS011;53902;51.466;-2.586;2022-07-10T17:22:09;1.20;;;1.10;;
66972;SDS011;53902;51.466;-2.586;2022-07-10T17:24:41;1.10;;;0.98;;
66972;SDS011;53902;51.466;-2.586;2022-07-10T17:30:02;0.82;;;0.77;;
66972;SDS011;53902;51.466;-2.586;2022-07-10T17:32:28;0.80;;;0.80;;
66972;SDS011;53902;51.466;-2.586;2022-07-10T17:34:54;0.90;;;0.90;;
66972;SDS011;53902;51.466;-2.586;2022-07-10T17:37:19;0.97;;;0.80;;
66972;SDS011;53902;51.466;-2.586;2022-07-10T17:39:45;0.70;;;0.70;;
66972;SDS011;53902;51.466;-2.586;2022-07-10T17:42:10;0.87;;;0.70;;
66972;SDS011;53902;51.466;-2.586;2022-07-10T17:44:36;1.33;;;1.10;;
66972;SDS011;53902;51.466;-2.586;2022-07-10T17:47:01;0.90;;;0.90;;
66972;SDS011;53902;51.466;-2.586;2022-07-10T17:49:27;1.17;;;0.75;;
66972;SDS011;53902;51.466;-2.586;2022-07-10T17:51:56;1.20;;;0.95;;
66972;SDS011;53902;51.466;-2.586;2022-07-10T17:54:23;1.40;;;1.02;;
66972;SDS011;53902;51.466;-2.586;2022-07-10T17:56:48;1.13;;;0.90;;
66972;SDS011;53902;51.466;-2.586;2022-07-10T17:59:13;2.03;;;1.00;;
66972;SDS011;53902;51.466;-2.586;2022-07-10T18:01:39;1.10;;;1.00;;
66972;SDS011;53902;51.466;-2.586;2022-07-10T18:04:04;2.83;;;1.40;;
66972;SDS011;53902;51.466;-2.586;2022-07-10T18:06:31;1.70;;;1.60;;
66972;SDS011;53902;51.466;-2.586;2022-07-10T18:08:56;2.37;;;1.77;;
66972;SDS011;53902;51.466;-2.586;2022-07-10T18:11:23;1.75;;;1.50;;
66972;SDS011;53902;51.466;-2.586;2022-07-10T18:13:48;2.50;;;1.33;;
66972;SDS011;53902;51.466;-2.586;2022-07-10T18:16:14;1.63;;;1.53;;
66972;SDS011;53902;51.466;-2.586;2022-07-10T18:18:41;1.83;;;1.38;;
66972;SDS011;53902;51.466;-2.586;2022-07-10T18:21:12;2.92;;;1.40;;
66972;SDS011;53902;51.466;-2.586;2022-07-10T18:23:37;1.73;;;1.10;;
66972;SDS011;53902;51.466;-2.586;2022-07-10T18:26:04;2.35;;;1.10;;